Lake Worth, FL (33467)

5:00 PM EDT on September 01, 2015 (GMT -0400)
D A N E T S | | Change Station
CLOSE
Current Station
Personal Weather Station
Location: Lake Worth, FL
Elevation: 25 ft
Nearby Weather Stations

Elev 25 ft 26.61 °N, 80.17 °W | Updated 9 seconds ago

Partly Cloudy
Partly Cloudy
90.8 °F
Feels Like 102 °F
N
5.0
Wind Variable Wind from SSE
Gusts 5.0 mph

Today
High -- | Low -- °F
--% Chance of Precip.
Yesterday
High -- | Low -- °F
Precip. -- in
7:00 AM 7:40 PM
Waning Gibbous, 86% visible
Pressure 30.04 in
Visibility 10.0 miles
Clouds Scattered Clouds 2900 ft
Scattered Clouds 5500 ft
Scattered Clouds 24000 ft
Heat Index 102 °F
Dew Point 76 °F
Humidity 61%
Rainfall 0.00 in
Snow Depth Not available.
UV 2.6 out of 12
Pollen 4.80 out of 12
Air Quality Not available.
Flu Activity Not available.
METAR KPBI 012053Z 11010KT 10SM SCT029TCU SCT055 SCT240 32/23 A3004 RMK AO2 SLP173 TCU SW-W CB DSNT SW T03170233 56012
Pressure 30.04 in
Visibility 10.0 miles
Clouds Scattered Clouds 2900 ft
Scattered Clouds 5500 ft
Scattered Clouds 24000 ft
Heat Index 102 °F
Dew Point 76 °F
Humidity 61%
Rainfall 0.00 in
Snow Depth Not available.
UV 2.6 out of 12
Pollen 4.80 out of 12
Air Quality Not available.
Flu Activity Not available.
METAR KPBI 012053Z 11010KT 10SM SCT029TCU SCT055 SCT240 32/23 A3004 RMK AO2 SLP173 TCU SW-W CB DSNT SW T03170233 56012
Nowcast | as of 2:26 PM EDT on September 1, 2015

Scattered showers and thunderstorms will continue to develop through this afternoon. Gusty winds to 40 mph, frequent cloud to ground lightning and heavy downpours are possible with the strongest storms. Most activity is expected to move to the north northwest around 10 mph. Potentially, a half inch of rain could fall in a very short period of time.

×

10-Day Weather Forecast

×

Almanac

Astronomy

Sep. 01, 2015 Rise Set
Actual Time
Civil Twilight
Nautical Twilight
Astronomical Twilight
Moon
Length of Visible Light
Length of Day
Tomorrow will be .
, % of the Moon is Illuminated

Today's Extremes

State Highs State Lows

Community

WunderPhotos

Upload Photos

1,851,616 photos uploaded!

WunderBlogs® & News

Nearby

Air Quality

  Air Quality AQ Index Pollutant
Not available.

Snow Depth

Station Depth Elevation

Earthquake Activity

City Distance Mag. Time & Date
Minimum magnitude displayed is 2.5.

Coastal Water Temperatures

Place Temperature

Stations

Nearby Weather Stations

Station Location Temp. Windchill Dew Point Humidity Wind Precip. Elev Updated Type